| time (UTC) | temp C | wind direction | speed KPH | gust KPH | rain 1hr cm | rain 24hr cm | rain mn cm | humidity % | barometer mb |
| 20260906163016 | 22 | 0.0 | 9.7 | 0.00 | 0.00 | 0.00 | 83 | 1018.3 | |
| 20260906160016 | 22 | 68 | 6.4 | 20.9 | 0.00 | 0.00 | 0.00 | 87 | 1018.1 |
| 20260906153037 | 21 | 68 | 4.8 | 12.9 | 0.00 | 0.00 | 0.00 | 88 | 1018.2 |
| 20260906150017 | 21 | 68 | 1.6 | 11.3 | 0.00 | 0.00 | 0.00 | 88 | 1018.3 |
| 20260906143017 | 21 | 68 | 4.8 | 11.3 | 0.00 | 0.00 | 0.00 | 89 | 1017.9 |
| 20260906140037 | 20 | 90 | 1.6 | 12.9 | 0.00 | 0.00 | 0.00 | 90 | 1017.7 |
| 20260906133017 | 20 | 90 | 1.6 | 16.1 | 0.00 | 0.00 | 0.00 | 90 | 1017.6 |
| 20260906130017 | 20 | 113 | 4.8 | 17.7 | 0.00 | 0.00 | 0.00 | 92 | 1017.1 |
| 20260906123017 | 20 | 113 | 4.8 | 20.9 | 0.00 | 0.00 | 0.00 | 92 | 1017.0 |
| 20260906120017 | 20 | 113 | 1.6 | 17.7 | 0.00 | 0.00 | 0.00 | 93 | 1017.0 |
| 20260906113017 | 20 | 0.0 | 12.9 | 0.00 | 0.00 | 0.00 | 94 | 1016.8 | |
| 20260906110017 | 20 | 0.0 | 9.7 | 0.00 | 0.00 | 0.00 | 92 | 1016.6 | |
| 20260906103017 | 20 | 0.0 | 9.7 | 0.00 | 0.00 | 0.00 | 93 | 1016.3 | |
| 20260906100017 | 20 | 0.0 | 9.7 | 0.00 | 0.00 | 0.00 | 93 | 1016.2 | |
| 20260906093017 | 20 | 90 | 4.8 | 16.1 | 0.00 | 0.00 | 0.00 | 92 | 1015.7 |
| 20260906090017 | 20 | 68 | 4.8 | 16.1 | 0.00 | 0.00 | 0.00 | 92 | 1015.6 |
| 20260906083017 | 21 | 68 | 1.6 | 16.1 | 0.00 | 0.00 | 0.00 | 91 | 1015.5 |
| 20260906080037 | 21 | 90 | 6.4 | 20.9 | 0.00 | 0.00 | 0.00 | 90 | 1015.6 |
| 20260906073108 | 21 | 45 | 6.4 | 29.0 | 0.00 | 0.00 | 0.00 | 89 | 1015.6 |
| 20260906070017 | 21 | 68 | 6.4 | 20.9 | 0.00 | 0.00 | 0.00 | 89 | 1016.0 |
| 20260906063057 | 21 | 45 | 4.8 | 16.1 | 0.00 | 0.00 | 0.00 | 89 | 1016.4 |
| 20260906060037 | 22 | 68 | 6.4 | 17.7 | 0.00 | 0.00 | 0.00 | 88 | 1016.1 |
| 20260906053017 | 22 | 45 | 6.4 | 16.1 | 0.00 | 0.00 | 0.00 | 88 | 1015.9 |
| 20260906050105 | 22 | 68 | 6.4 | 17.7 | 0.00 | 0.00 | 0.00 | 88 | 1015.7 |
| 20260906043016 | 22 | 45 | 4.8 | 11.3 | 0.00 | 0.00 | 0.00 | 87 | 1015.9 |
| 20260906040016 | 23 | 45 | 4.8 | 11.3 | 0.00 | 0.00 | 0.00 | 87 | 1015.8 |
| 20260906033016 | 23 | 68 | 1.6 | 11.3 | 0.00 | 0.00 | 0.00 | 86 | 1015.7 |
| 20260906030016 | 23 | 68 | 4.8 | 11.3 | 0.00 | 0.00 | 0.00 | 86 | 1015.3 |
| 20260906023016 | 23 | 68 | 4.8 | 11.3 | 0.00 | 0.00 | 0.00 | 86 | 1015.2 |
| 20260906020036 | 24 | 68 | 6.4 | 17.7 | 0.00 | 0.00 | 0.00 | 85 | 1014.6 |
| 20260906013017 | 24 | 113 | 1.6 | 12.9 | 0.00 | 0.00 | 0.00 | 85 | 1013.9 |
| 20260906010036 | 25 | 0.0 | 6.4 | 0.00 | 0.00 | 0.00 | 85 | 1013.8 | |
| 20260906003036 | 25 | 0.0 | 4.8 | 0.00 | 0.00 | 0.00 | 83 | 1013.4 | |
| 20260906000017 | 25 | 113 | 1.6 | 16.1 | 0.00 | 0.00 | 0.00 | 81 | 1013.2 |
| 20260905233036 | 26 | 45 | 9.7 | 29.0 | 0.00 | 0.00 | 0.00 | 78 | 1013.4 |
| 20260905230016 | 26 | 45 | 11.3 | 29.0 | 0.00 | 0.00 | 0.00 | 76 | 1013.0 |
| 20260905223017 | 27 | 45 | 11.3 | 32.2 | 0.00 | 0.00 | 0.00 | 76 | 1013.0 |
| 20260905220016 | 27 | 45 | 12.9 | 33.8 | 0.00 | 0.00 | 0.00 | 77 | 1013.0 |
| 20260905213016 | 27 | 45 | 11.3 | 27.4 | 0.00 | 0.00 | 0.00 | 77 | 1013.2 |
| 20260905210016 | 28 | 23 | 11.3 | 24.1 | 0.00 | 0.00 | 0.00 | 76 | 1013.6 |
| 20260905203017 | 28 | 23 | 11.3 | 27.4 | 0.00 | 0.00 | 0.00 | 77 | 1013.9 |
| 20260905200037 | 29 | 23 | 9.7 | 22.5 | 0.00 | 0.00 | 0.00 | 75 | 1014.1 |
| 20260905193016 | 30 | 23 | 9.7 | 20.9 | 0.00 | 0.00 | 0.00 | 73 | 1014.2 |
| 20260905190037 | 29 | 0 | 6.4 | 22.5 | 0.00 | 0.00 | 0.00 | 75 | 1014.6 |
| 20260905183037 | 30 | 23 | 6.4 | 22.5 | 0.00 | 0.00 | 0.00 | 74 | 1014.7 |
| 20260905180017 | 28 | 23 | 11.3 | 24.1 | 0.00 | 0.00 | 0.00 | 77 | 1014.5 |
| 20260905173017 | 29 | 23 | 11.3 | 24.1 | 0.00 | 0.00 | 0.00 | 77 | 1014.4 |
| 20260905170057 | 29 | 23 | 11.3 | 27.4 | 0.00 | 0.00 | 0.00 | 77 | 1014.5 |